METAR Data
IDs: Format: Raw Decoded Include TAF

Data at: 0801 UTC 23 Sep 2018

KFST 230753Z AUTO 22007KT 10SM BKN070 16/14 A3010 RMK AO2 SLP157 T01610139
KFST 230653Z AUTO 23007KT 10SM OVC065 17/14 A3012 RMK AO2 SLP162 T01670144
KFST 230553Z AUTO 22007KT 10SM OVC060 17/14 A3012 RMK AO2 SLP165 T01720144 10239 20172 402440144 56003
KFST 230453Z AUTO 21006KT 10SM OVC060 17/14 A3013 RMK AO2 SLP168 T01720139
KFST 230353Z AUTO 00000KT 10SM CLR 18/13 A3013 RMK AO2 SLP169 T01830133
KFST 230253Z AUTO 10003KT 10SM CLR 19/13 A3013 RMK AO2 SLP170 T01940133 53010
KFST 230153Z AUTO 05005KT 10SM CLR 20/13 A3011 RMK AO2 SLP163 T02000133
KFST 230053Z AUTO 05005KT 10SM CLR 21/14 A3010 RMK AO2 SLP157 T02110139
KFST 222353Z AUTO 35005KT 10SM CLR 24/12 A3010 RMK AO2 SLP152 T02390122 10244 20194 56011
KFST 222253Z AUTO 33010KT 10SM CLR 24/12 A3010 RMK AO2 SLP154 T02390122
KFST 222153Z AUTO 33007KT 10SM SCT055 23/12 A3012 RMK AO2 SLP159 T02330122
KFST 222053Z AUTO 34009KT 10SM FEW042 SCT050 23/13 A3013 RMK AO2 SLP166 T02280128 58018
KFST 221953Z AUTO 32006KT 10SM BKN034 OVC049 22/14 A3016 RMK AO2 SLP175 T02170139
KFST 221915Z AUTO 34008KT 10SM OVC030 21/14 A3018 RMK AO2 T02060144
KFST 221853Z AUTO 34008KT 10SM OVC029 20/14 A3019 RMK AO2 SLP187 T02000139
KFST 221848Z AUTO 01010KT 10SM OVC029 21/14 A3019 RMK AO2
KFST 221824Z AUTO 36011G17KT 10SM OVC030 21/14 A3020 RMK AO2 T02060139
KFST 221753Z AUTO 34007KT 10SM BKN026 19/13 A3022 RMK AO2 SLP196 T01940133 10194 20144 58005
KFST 221653Z AUTO 34010KT 10SM BKN015 OVC025 17/14 A3024 RMK AO2 SLP207 T01670144
KFST 221620Z AUTO 32012KT 10SM SCT011 OVC019 16/14 A3024 RMK AO2 T01610144
KFST 221553Z AUTO 35011KT 8SM BKN010 OVC017 15/14 A3024 RMK AO2 CIG 008V013 SLP208 T01500139
KFST 221537Z AUTO 34013KT 10SM FEW006 BKN010 OVC016 16/14 A3024 RMK AO2 T01560139
KFST 221453Z AUTO 35010KT 10SM BKN008 OVC016 15/14 A3023 RMK AO2 CIG 006V012 SLP205 T01500139 50005
KFST 221449Z AUTO 35010KT 10SM SCT006 OVC013 15/14 A3023 RMK AO2
KFST 221442Z AUTO 36008KT 7SM BKN010 OVC015 15/14 A3023 RMK AO2 CIG 006V013 T01500139
KFST 221439Z AUTO 35009KT 6SM BR SCT010 OVC015 15/14 A3023 RMK AO2 T01500139
KFST 221433Z AUTO 34011KT 5SM BR BKN008 OVC013 15/14 A3024 RMK AO2 CIG 006V010 T01500139
KFST 221425Z AUTO 33012KT 10SM FEW006 OVC015 15/14 A3023 RMK AO2 T01500139
KFST 221353Z AUTO 35008KT 7SM SCT007 OVC012 14/14 A3023 RMK AO2 SLP206 T01440139
KFST 221330Z AUTO 36012KT 8SM BKN013 OVC020 15/13 A3023 RMK AO2 T01500133
KFST 221253Z AUTO 36010KT 10SM OVC017 16/13 A3021 RMK AO2 SLP196 T01560133
KFST 221153Z AUTO 36010KT 10SM OVC019 17/14 A3019 RMK AO2 SLP187 60000 70009 T01670139 10183 20167 53003
KFST 221053Z AUTO 36007KT 10SM OVC022 17/14 A3019 RMK AO2 SLP185 T01670144
KFST 220953Z AUTO 36012KT 10SM OVC018 17/14 A3018 RMK AO2 RAB09E19 SLP181 P0000 T01670144
KFST 220943Z AUTO 36013KT 10SM OVC018 17/15 A3018 RMK AO2 RAB09E19 P0000 T01670150
KFST 220918Z AUTO 36011KT 10SM -RA OVC014 17/16 A3018 RMK AO2 RAB09 P0000 T01720156
KFST 220853Z AUTO 01009KT 10SM OVC016 17/16 A3018 RMK AO2 SLP180 60000 T01720156 58006
KFST 220753Z AUTO 36009KT 10SM OVC016 18/16 A3019 RMK AO2 SLP182 T01780161
KFST 220713Z AUTO 02013KT 10SM FEW010 BKN020 OVC029 17/16 A3020 RMK AO2 T01720161
KFST 220653Z AUTO 02013KT 10SM OVC014 18/17 A3020 RMK AO2 RAB27E38 SLP187 P0000 T01780167
KFST 220631Z AUTO 36014G19KT 10SM -RA OVC014 18/17 A3020 RMK AO2 RAB27 P0000 T01830172
KFST 220618Z AUTO 35007KT 10SM BKN016 OVC021 18/17 A3020 RMK AO2 T01830172
KFST 220553Z AUTO 35010KT 10SM OVC013 18/17 A3020 RMK AO2 RAE18 SLP188 P0001 60009 T01830172 10228 20178 402720178 50004
KFST 220453Z AUTO 35007KT 7SM -RA OVC012 18/17 A3021 RMK AO2 SLP191 P0003 T01780172
KFST 220415Z AUTO 01011KT 5SM RA BR OVC014 18/17 A3021 RMK AO2 P0002 T01780172
KFST 220353Z AUTO 02011KT 10SM -RA OVC015 18/17 A3021 RMK AO2 RAB0254E24B49 SLP191 P0000 T01830172
KFST 220253Z AUTO 02010KT 10SM BKN016 OVC020 18/17 A3019 RMK AO2 PK WND 01028/0213 RAB02E30 SLP185 P0000 60005 T01830172 53030
KFST 220213Z AUTO 01020G28KT 4SM -RA BR SCT006 BKN019 OVC026 18/18 A3017 RMK AO2 PK WND 01028/0213 RAB02 P0000 T01830178
KFST 220153Z AUTO 02016KT 10SM FEW010 BKN024 OVC031 19/18 A3015 RMK AO2 PK WND 02029/0056 RAB0057E18B28E44 SLP172 P0005 T01890178
KFST 220137Z AUTO 02015G27KT 10SM -RA SCT010 BKN016 OVC026 19/18 A3014 RMK AO2 PK WND 02029/0056 RAB0057E18B28 P0005 T01890178
KFST 220126Z AUTO 01011G20KT 10SM FEW008 BKN014 OVC026 19/18 A3013 RMK AO2 PK WND 02029/0056 RAB0057E18 P0004 T01940183
KFST 220053Z AUTO 02014G20KT 10SM FEW017 BKN024 OVC031 22/18 A3011 RMK AO2 SLP155 T02170183
KFST 220012Z AUTO 02015KT 10SM SCT024 BKN030 OVC075 23/18 A3009 RMK AO2 T02280178
KFST 212353Z AUTO 36013KT 10SM BKN024 BKN031 OVC075 23/18 A3009 RMK AO2 SLP149 T02280183 10272 20228 53020
KFST 212312Z AUTO 01015KT 10SM SCT026 BKN043 OVC070 23/18 A3008 RMK AO2 T02330183
KFST 212300Z AUTO 36014KT 10SM BKN026 BKN034 OVC050 23/18 A3007 RMK AO2 T02330183
KFST 212253Z AUTO 02012KT 10SM SCT026 BKN035 BKN049 24/18 A3007 RMK AO2 SLP141 T02390183
KFST 212153Z AUTO 01015G24KT 10SM SCT036 SCT050 OVC100 24/19 A3004 RMK AO2 PK WND 01029/2137 WSHFT 2127 SLP131 T02440189
KFST 212053Z AUTO 31013KT 10SM FEW031 SCT080 OVC095 26/18 A3003 RMK AO2 SLP123 T02610183 58012